Eskmeals, United Kingdom
Current Conditions -  °F | °C
As of 2:20 PM on Saturday 20 Dec 2014 (Local Time) from EGNH Reporting Station
Scattered Clouds Scattered Clouds  
Wind Chill: 42°   Ceiling: Unl
Heat Index: 48°   Visibility: 6mi
Dew Point: 41°   Wind: 18mph
Humidity: 76%   Direction: 280°W
Pressure: 30.27"   Gusts: NA
Location:  54.32°N, 3.4°W
Report Text: EGNH 201420Z 28016KT 9999 FEW028 SCT038 09/05 Q1025
Loading
Personal Weather Stations






























Interactive Weather Map New forecast layout! Learn more

10-Day Weather Forecast

Advertisements
Track Severe Weather on mobile